Championnat de Ligue MD Bourg-en-Bresse (01) - D

Date : 09/04/2011
Distance : 3,000 km

Place Nom Licence Catégorie Club Temps min/km CN à J-60 Points Différence Nouveau CN
1 RINGOT Paul 12358 H14 6913RA 0:22:30 7'30 4019 4743 +724 4060
2 PERRIN Mathieu 8976 H14 4201RA 0:23:37 7'52 3058 4519 +1461 3107
3 DENAIX Lou 7711 D16 7403RA 0:23:55 7'58 4432 4462 +30 4459
4 HUMMEL-AZAIS Margaux 18432 D16 7403RA 0:24:48 8'16 4546 4303 -243 4653
5 MOREAU Noé 17929 H14 2605RA 0:25:06 8'22 3430 4252 +822 3848
6 LE PENNEC Jean 20744 H14 2605RA 0:26:18 8'46 2543 4058 +1515 2692
7 DROIN Solène 17925 D14 4201RA 0:27:06 9'02 3488 3938 +450 3603
8 MOISSET Jacques 2328 H60 7403RA 0:28:09 9'23 5590 3791 -1799 5590
9 BORNARD Nicolas 9403 H14 7305RA 0:28:34 9'31 2189 3736 +1547 2509
10 BONNAVEIRA Fabien 23282 H14 2606RA 0:29:02 9'40 2998 3676 +678 3252
11 MAISONNEUVE Valentine 16357 D16 4203RA 0:29:09 9'43 3797 3661 -136 3797
12 BIHEL Julia 14738 D18 4203RA 0:30:49 10'16 3671 3463 -208 3621
13 SINIBALDI Marc 1347 H65 3801RA 0:31:46 10'35 5008 3360 -1648 5011
14 BONORA Marine 11542 D16 6906RA 0:32:25 10'48 2369 3292 +923 2419
15 MICHEL GaËtan 20045 H14 2606RA 0:32:34 10'51 3277 0
16 MEJEAN Hugues 23666 H14 2606RA 0:33:02 11'00 3231 0
17 MOUYON Elisa 20101 D16 2606RA 0:33:23 11'07 3881 3197 -684 3881
18 ANNE Roger 1673 H60 0111RA 0:33:42 11'14 3948 3167 -781 3700
19 JAGLE Jean-Marc 3512 H65 0111RA 0:34:15 11'25 3116 0
20 LASSALLE J-Paul 1677 H65 0111RA 0:34:19 11'26 2873 3110 +237 2934
21 RIVOLLIER Isaline 22451 D16 4201RA 0:35:21 11'47 2550 3019 +469 2648
22 BIHEL Jeanne 23728 D14 4203RA 0:35:51 11'57 2977 0
23 BASSET Juliette 12398 D14 6911RA 0:36:00 12'00 2344 2964 +620 2417
24 HABAUZIT Quentin 23281 H16 2606RA 0:37:13 12'24 2484 2868 +384 2696
25 BORNARD Julie 9402 D16 7305RA 0:37:25 12'28 3001 2852 -149 3166
26 BASSET Fiona 23384 D16 6911RA 0:37:36 12'32 2309 2838 +529 2419
27 DUFOUR Marcel 2343 H65 2604RA 0:37:49 12'36 4220 2822 -1398 4220
28 BERRARD Tom 19761 H14 2607RA 0:38:36 12'52 1907 2765 +858 1907
29 SCHMITT-POUPARD Florence 12056 D55 6913RA 0:39:17 13'05 3385 2717 -668 3332
30 GANDON J-Claude 249 H70 6906RA 0:39:24 13'08 3833 2709 -1124 4036
31 ANNE Brigitte 1672 D60 0111RA 0:40:26 13'28 3620 2639 -981 3455
32 RAISON Xavier 24171 H40 2606RA 0:40:50 13'36 2614 0
33 FERRAND Antonin 23465 H14 4203RA 0:40:54 13'38 1790 2609 +819 1826
34 ROCHE Jonathan 15417 H14 6911RA 0:41:39 13'53 2858 2562 -296 2901
35 BERRARD Anna 19762 D14 2607RA 0:42:20 14'06 2562 2521 -41 2613
36 VUITTON Marie 18842 D14 6911RA 0:42:40 14'13 2544 2501 -43 2544
37 RADISSON Jules 18080 H14 6913RA 0:43:09 14'23 2379 2473 +94 2430
38 BASSET Laurence 23575 D40 6911RA 0:43:09 14'23 2663 2473 -190 2656
39 LICK Patrice 6708 H60 7404RA 0:43:48 14'36 2601 2437 -164 2566
40 CHAILLARD Dana 12045 D14 7305RA 0:44:07 14'42 2224 2419 +195 2397
41 COURSIER Antoine 21436 H14 2605RA 0:44:24 14'48 1717 2404 +687 2008
42 MOISSET Nicole 2329 D50 7403RA 0:45:10 15'03 2996 2363 -633 2996
43 GHIBAUDO Simon 20917 H14 4203RA 0:46:59 15'39 2389 2271 -118 2485
44 BAZIN Théo 20926 H14 4203RA 0:47:57 15'59 2649 2226 -423 2649
45 JOURDAN Aurélien 23285 H14 2606RA 0:48:54 16'18 2551 2182 -369 2551
46 CHAVEE Antoine 18738 H14 6911RA 0:52:50 17'36 1817 2020 +203 1928
47 GUET Martine 11810 D55 6906RA 0:56:16 18'45 2769 1897 -872 2769
48 HELIOT Claude 2349 H70 2604RA 0:56:59 18'59 4152 1873 -2279 4255
49 PERMINGEAT Helene 21054 D55 2606RA 0:57:38 19'12 2426 1852 -574 2146
50 MARLIAC Quentin 19399 H14 4203RA 1:03:20 21'06 2419 1685 -734 2419
51 JOURDAN Cindy 23286 D16 2606RA 1:04:47 21'35 2579 1647 -932 2579
52 DUDOIGNON Chloé 18089 D14 2605RA 1:06:13 22'04 1980 1612 -368 1980
53 CHATAGNIER Clea 11106 D14 7404RA 1:10:44 23'34 1437 1509 +72 1579
54 BERLAND Julien 24057 H14 3809RA 1:16:43 25'34 1391 0
55 BENOIT Nathalie 18122 D35 2607RA 1:31:42 30'34 1342 1164 -178 1282
56 BRUNET Evelyne 10179 D55 3807RA 2:05:11 41'43 0 853 819
BODY Mathilde 10184 D16 7305RA pm None 3923 0 4107
DEFIX Anne-Claire 21435 D18 4203RA pm None 3500 0 3379
PHILIPPOT Sylvain 24668 H14 2606RA pm None 0 0
KESMEDJIAN Ninon 22673 D16 2607RA pm None 1416 0 1445
PERRON Lucas 20601 H14 3809RA pm None 0 0 0